sensor_id;sensor_type;location;lat;lon;timestamp;P1;durP1;ratioP1;P2;durP2;ratioP2
67819;SDS011;54618;52.018;5.576;2023-01-08T00:00:42;1.15;;;0.77;;
67819;SDS011;54618;52.018;5.576;2023-01-08T00:03:07;1.73;;;0.90;;
67819;SDS011;54618;52.018;5.576;2023-01-08T00:05:33;1.65;;;1.00;;
67819;SDS011;54618;52.018;5.576;2023-01-08T00:07:58;1.60;;;0.95;;
67819;SDS011;54618;52.018;5.576;2023-01-08T00:10:24;1.75;;;0.90;;
67819;SDS011;54618;52.018;5.576;2023-01-08T00:12:49;2.05;;;1.00;;
67819;SDS011;54618;52.018;5.576;2023-01-08T00:15:15;1.48;;;0.90;;
67819;SDS011;54618;52.018;5.576;2023-01-08T00:17:40;1.42;;;0.80;;
67819;SDS011;54618;52.018;5.576;2023-01-08T00:20:06;1.10;;;0.77;;
67819;SDS011;54618;52.018;5.576;2023-01-08T00:22:32;1.42;;;0.80;;
67819;SDS011;54618;52.018;5.576;2023-01-08T00:24:57;1.65;;;0.98;;
67819;SDS011;54618;52.018;5.576;2023-01-08T00:27:23;2.75;;;0.90;;
67819;SDS011;54618;52.018;5.576;2023-01-08T00:29:49;1.55;;;0.90;;
67819;SDS011;54618;52.018;5.576;2023-01-08T00:32:14;1.08;;;0.80;;
67819;SDS011;54618;52.018;5.576;2023-01-08T00:34:40;1.63;;;0.98;;
67819;SDS011;54618;52.018;5.576;2023-01-08T00:37:05;2.58;;;0.80;;
67819;SDS011;54618;52.018;5.576;2023-01-08T00:39:31;1.27;;;0.82;;
67819;SDS011;54618;52.018;5.576;2023-01-08T00:41:56;2.22;;;1.02;;
67819;SDS011;54618;52.018;5.576;2023-01-08T00:44:22;1.85;;;0.80;;
67819;SDS011;54618;52.018;5.576;2023-01-08T00:46:47;1.80;;;0.88;;
67819;SDS011;54618;52.018;5.576;2023-01-08T00:49:13;1.40;;;0.80;;
67819;SDS011;54618;52.018;5.576;2023-01-08T00:51:38;1.80;;;0.90;;
67819;SDS011;54618;52.018;5.576;2023-01-08T00:54:04;2.17;;;0.85;;
67819;SDS011;54618;52.018;5.576;2023-01-08T00:56:29;1.63;;;0.90;;
67819;SDS011;54618;52.018;5.576;2023-01-08T00:58:55;1.17;;;0.80;;
67819;SDS011;54618;52.018;5.576;2023-01-08T01:01:21;1.85;;;0.98;;
67819;SDS011;54618;52.018;5.576;2023-01-08T01:03:47;1.83;;;0.95;;
67819;SDS011;54618;52.018;5.576;2023-01-08T01:06:13;1.33;;;0.80;;
67819;SDS011;54618;52.018;5.576;2023-01-08T01:08:38;1.17;;;0.80;;
67819;SDS011;54618;52.018;5.576;2023-01-08T01:11:05;1.63;;;1.00;;
67819;SDS011;54618;52.018;5.576;2023-01-08T01:13:35;1.60;;;0.90;;
67819;SDS011;54618;52.018;5.576;2023-01-08T01:16:01;1.48;;;0.90;;
67819;SDS011;54618;52.018;5.576;2023-01-08T01:18:28;1.15;;;0.80;;
67819;SDS011;54618;52.018;5.576;2023-01-08T01:20:53;1.60;;;0.93;;
67819;SDS011;54618;52.018;5.576;2023-01-08T01:23:19;1.60;;;0.90;;
67819;SDS011;54618;52.018;5.576;2023-01-08T01:25:45;1.77;;;0.90;;
67819;SDS011;54618;52.018;5.576;2023-01-08T01:28:10;1.48;;;0.80;;
67819;SDS011;54618;52.018;5.576;2023-01-08T01:30:36;1.73;;;0.77;;
67819;SDS011;54618;52.018;5.576;2023-01-08T01:33:01;1.80;;;1.00;;
67819;SDS011;54618;52.018;5.576;2023-01-08T01:35:27;1.35;;;0.85;;
67819;SDS011;54618;52.018;5.576;2023-01-08T01:37:52;1.40;;;0.80;;
67819;SDS011;54618;52.018;5.576;2023-01-08T01:40:18;1.20;;;0.70;;
67819;SDS011;54618;52.018;5.576;2023-01-08T01:42:43;1.83;;;0.90;;
67819;SDS011;54618;52.018;5.576;2023-01-08T01:45:16;1.58;;;0.90;;
67819;SDS011;54618;52.018;5.576;2023-01-08T01:47:47;1.52;;;0.80;;
67819;SDS011;54618;52.018;5.576;2023-01-08T01:53:02;1.67;;;0.90;;
67819;SDS011;54618;52.018;5.576;2023-01-08T01:55:33;1.67;;;1.00;;
67819;SDS011;54618;52.018;5.576;2023-01-08T01:58:09;1.55;;;0.90;;
67819;SDS011;54618;52.018;5.576;2023-01-08T02:00:38;1.33;;;0.80;;
67819;SDS011;54618;52.018;5.576;2023-01-08T02:03:03;1.45;;;0.90;;
67819;SDS011;54618;52.018;5.576;2023-01-08T02:05:33;2.20;;;1.10;;
67819;SDS011;54618;52.018;5.576;2023-01-08T02:08:13;1.52;;;0.88;;
67819;SDS011;54618;52.018;5.576;2023-01-08T02:10:52;1.67;;;1.00;;
67819;SDS011;54618;52.018;5.576;2023-01-08T02:13:33;1.48;;;0.90;;
67819;SDS011;54618;52.018;5.576;2023-01-08T02:18:37;1.45;;;0.95;;
67819;SDS011;54618;52.018;5.576;2023-01-08T02:21:08;1.38;;;0.70;;
67819;SDS011;54618;52.018;5.576;2023-01-08T02:26:30;1.42;;;0.90;;
67819;SDS011;54618;52.018;5.576;2023-01-08T02:29:14;1.58;;;1.00;;
67819;SDS011;54618;52.018;5.576;2023-01-08T02:31:42;1.65;;;0.95;;
67819;SDS011;54618;52.018;5.576;2023-01-08T02:34:08;1.65;;;0.93;;
67819;SDS011;54618;52.018;5.576;2023-01-08T02:44:13;2.05;;;0.90;;
67819;SDS011;54618;52.018;5.576;2023-01-08T02:46:44;1.38;;;0.90;;
67819;SDS011;54618;52.018;5.576;2023-01-08T02:49:13;1.40;;;0.90;;
67819;SDS011;54618;52.018;5.576;2023-01-08T02:51:48;1.48;;;0.90;;
67819;SDS011;54618;52.018;5.576;2023-01-08T02:54:19;1.20;;;0.82;;
67819;SDS011;54618;52.018;5.576;2023-01-08T02:56:51;1.13;;;0.80;;
67819;SDS011;54618;52.018;5.576;2023-01-08T02:59:21;1.23;;;0.82;;
67819;SDS011;54618;52.018;5.576;2023-01-08T03:01:48;1.25;;;0.80;;
67819;SDS011;54618;52.018;5.576;2023-01-08T03:04:15;1.52;;;0.73;;
67819;SDS011;54618;52.018;5.576;2023-01-08T03:06:43;1.30;;;0.70;;
67819;SDS011;54618;52.018;5.576;2023-01-08T03:09:10;1.65;;;0.73;;
67819;SDS011;54618;52.018;5.576;2023-01-08T03:11:38;0.98;;;0.70;;
67819;SDS011;54618;52.018;5.576;2023-01-08T03:16:55;2.15;;;0.85;;
67819;SDS011;54618;52.018;5.576;2023-01-08T03:19:29;1.67;;;0.85;;
67819;SDS011;54618;52.018;5.576;2023-01-08T03:22:00;1.30;;;0.75;;
67819;SDS011;54618;52.018;5.576;2023-01-08T03:24:32;1.42;;;0.85;;
67819;SDS011;54618;52.018;5.576;2023-01-08T03:26:59;1.50;;;0.73;;
67819;SDS011;54618;52.018;5.576;2023-01-08T03:29:28;1.35;;;0.90;;
67819;SDS011;54618;52.018;5.576;2023-01-08T03:31:57;1.65;;;0.88;;
67819;SDS011;54618;52.018;5.576;2023-01-08T03:34:26;1.42;;;0.82;;
67819;SDS011;54618;52.018;5.576;2023-01-08T03:36:55;1.33;;;0.80;;
67819;SDS011;54618;52.018;5.576;2023-01-08T03:39:28;1.90;;;0.90;;
67819;SDS011;54618;52.018;5.576;2023-01-08T03:42:03;1.55;;;0.70;;
67819;SDS011;54618;52.018;5.576;2023-01-08T03:44:31;1.70;;;0.77;;
67819;SDS011;54618;52.018;5.576;2023-01-08T03:46:57;1.92;;;0.90;;
67819;SDS011;54618;52.018;5.576;2023-01-08T03:49:23;1.08;;;0.75;;
67819;SDS011;54618;52.018;5.576;2023-01-08T03:51:52;1.23;;;0.80;;
67819;SDS011;54618;52.018;5.576;2023-01-08T03:54:19;1.17;;;0.75;;
67819;SDS011;54618;52.018;5.576;2023-01-08T03:56:47;1.40;;;0.70;;
67819;SDS011;54618;52.018;5.576;2023-01-08T03:59:13;1.73;;;0.90;;
67819;SDS011;54618;52.018;5.576;2023-01-08T04:01:40;1.10;;;0.60;;
67819;SDS011;54618;52.018;5.576;2023-01-08T04:04:06;1.15;;;0.65;;
67819;SDS011;54618;52.018;5.576;2023-01-08T04:06:32;1.48;;;0.80;;
67819;SDS011;54618;52.018;5.576;2023-01-08T04:08:58;1.25;;;0.73;;
67819;SDS011;54618;52.018;5.576;2023-01-08T04:11:24;1.30;;;0.85;;
67819;SDS011;54618;52.018;5.576;2023-01-08T04:13:49;1.33;;;0.85;;
67819;SDS011;54618;52.018;5.576;2023-01-08T04:16:15;1.05;;;0.70;;
67819;SDS011;54618;52.018;5.576;2023-01-08T04:18:40;1.20;;;0.65;;
67819;SDS011;54618;52.018;5.576;2023-01-08T04:21:06;1.30;;;0.70;;
67819;SDS011;54618;52.018;5.576;2023-01-08T04:23:31;1.65;;;0.80;;
67819;SDS011;54618;52.018;5.576;2023-01-08T04:25:57;0.85;;;0.65;;
67819;SDS011;54618;52.018;5.576;2023-01-08T04:28:23;1.60;;;0.80;;
67819;SDS011;54618;52.018;5.576;2023-01-08T04:30:49;1.30;;;0.80;;
67819;SDS011;54618;52.018;5.576;2023-01-08T04:33:15;0.98;;;0.60;;
67819;SDS011;54618;52.018;5.576;2023-01-08T04:35:40;1.42;;;0.82;;
67819;SDS011;54618;52.018;5.576;2023-01-08T04:38:06;1.40;;;0.75;;
67819;SDS011;54618;52.018;5.576;2023-01-08T04:40:32;1.42;;;0.70;;
67819;SDS011;54618;52.018;5.576;2023-01-08T04:42:58;1.70;;;0.80;;
67819;SDS011;54618;52.018;5.576;2023-01-08T04:45:24;2.45;;;0.70;;
67819;SDS011;54618;52.018;5.576;2023-01-08T04:47:56;1.35;;;0.68;;
67819;SDS011;54618;52.018;5.576;2023-01-08T04:50:23;1.42;;;0.70;;
67819;SDS011;54618;52.018;5.576;2023-01-08T04:52:49;1.90;;;0.80;;
67819;SDS011;54618;52.018;5.576;2023-01-08T04:55:15;1.13;;;0.50;;
67819;SDS011;54618;52.018;5.576;2023-01-08T04:57:40;1.27;;;0.70;;
67819;SDS011;54618;52.018;5.576;2023-01-08T05:00:06;1.10;;;0.70;;
67819;SDS011;54618;52.018;5.576;2023-01-08T05:02:32;1.55;;;0.77;;
67819;SDS011;54618;52.018;5.576;2023-01-08T05:04:58;0.85;;;0.60;;
67819;SDS011;54618;52.018;5.576;2023-01-08T05:07:24;0.98;;;0.60;;
67819;SDS011;54618;52.018;5.576;2023-01-08T05:09:50;1.10;;;0.68;;
67819;SDS011;54618;52.018;5.576;2023-01-08T05:12:16;0.90;;;0.70;;
67819;SDS011;54618;52.018;5.576;2023-01-08T05:14:41;2.20;;;0.63;;
67819;SDS011;54618;52.018;5.576;2023-01-08T05:17:07;1.02;;;0.57;;
67819;SDS011;54618;52.018;5.576;2023-01-08T05:19:32;1.58;;;0.60;;
67819;SDS011;54618;52.018;5.576;2023-01-08T05:21:58;1.10;;;0.63;;
67819;SDS011;54618;52.018;5.576;2023-01-08T05:24:23;2.10;;;0.70;;
67819;SDS011;54618;52.018;5.576;2023-01-08T05:26:49;1.55;;;0.80;;
67819;SDS011;54618;52.018;5.576;2023-01-08T05:29:15;1.48;;;0.52;;
67819;SDS011;54618;52.018;5.576;2023-01-08T05:31:40;1.23;;;0.60;;
67819;SDS011;54618;52.018;5.576;2023-01-08T05:34:06;0.80;;;0.60;;
67819;SDS011;54618;52.018;5.576;2023-01-08T05:36:31;1.00;;;0.60;;
67819;SDS011;54618;52.018;5.576;2023-01-08T05:38:57;1.83;;;0.70;;
67819;SDS011;54618;52.018;5.576;2023-01-08T05:41:23;1.70;;;0.60;;
67819;SDS011;54618;52.018;5.576;2023-01-08T05:43:48;1.20;;;0.60;;
67819;SDS011;54618;52.018;5.576;2023-01-08T05:46:14;1.85;;;0.80;;
67819;SDS011;54618;52.018;5.576;2023-01-08T05:48:40;1.00;;;0.60;;
67819;SDS011;54618;52.018;5.576;2023-01-08T05:51:05;0.82;;;0.60;;
67819;SDS011;54618;52.018;5.576;2023-01-08T05:53:31;1.40;;;0.68;;
67819;SDS011;54618;52.018;5.576;2023-01-08T05:56:00;2.08;;;0.60;;
67819;SDS011;54618;52.018;5.576;2023-01-08T05:58:27;1.50;;;0.70;;
67819;SDS011;54618;52.018;5.576;2023-01-08T06:00:53;1.42;;;0.63;;
67819;SDS011;54618;52.018;5.576;2023-01-08T06:03:22;0.93;;;0.65;;
67819;SDS011;54618;52.018;5.576;2023-01-08T06:05:47;2.05;;;0.75;;
67819;SDS011;54618;52.018;5.576;2023-01-08T06:08:13;1.15;;;0.60;;
67819;SDS011;54618;52.018;5.576;2023-01-08T06:10:39;1.23;;;0.63;;
67819;SDS011;54618;52.018;5.576;2023-01-08T06:13:06;1.48;;;0.60;;
67819;SDS011;54618;52.018;5.576;2023-01-08T06:15:32;0.80;;;0.52;;
67819;SDS011;54618;52.018;5.576;2023-01-08T06:18:01;1.38;;;0.80;;
67819;SDS011;54618;52.018;5.576;2023-01-08T06:20:27;2.45;;;0.70;;
67819;SDS011;54618;52.018;5.576;2023-01-08T06:22:52;1.10;;;0.60;;
67819;SDS011;54618;52.018;5.576;2023-01-08T06:25:18;2.08;;;0.70;;
67819;SDS011;54618;52.018;5.576;2023-01-08T06:27:48;1.95;;;0.80;;
67819;SDS011;54618;52.018;5.576;2023-01-08T06:30:15;1.15;;;0.70;;
67819;SDS011;54618;52.018;5.576;2023-01-08T06:32:40;1.10;;;0.65;;
67819;SDS011;54618;52.018;5.576;2023-01-08T06:35:06;0.88;;;0.57;;
67819;SDS011;54618;52.018;5.576;2023-01-08T06:37:32;1.15;;;0.60;;
67819;SDS011;54618;52.018;5.576;2023-01-08T06:39:57;1.75;;;0.60;;
67819;SDS011;54618;52.018;5.576;2023-01-08T06:42:23;0.88;;;0.55;;
67819;SDS011;54618;52.018;5.576;2023-01-08T06:44:49;0.80;;;0.50;;
67819;SDS011;54618;52.018;5.576;2023-01-08T06:47:14;1.63;;;0.60;;
67819;SDS011;54618;52.018;5.576;2023-01-08T06:49:40;0.60;;;0.50;;
67819;SDS011;54618;52.018;5.576;2023-01-08T06:52:05;0.80;;;0.60;;
67819;SDS011;54618;52.018;5.576;2023-01-08T06:54:31;1.15;;;0.60;;
67819;SDS011;54618;52.018;5.576;2023-01-08T06:56:56;1.38;;;0.60;;
67819;SDS011;54618;52.018;5.576;2023-01-08T06:59:22;0.90;;;0.50;;
67819;SDS011;54618;52.018;5.576;2023-01-08T07:01:47;0.35;;;0.32;;
67819;SDS011;54618;52.018;5.576;2023-01-08T07:04:13;1.05;;;0.43;;
67819;SDS011;54618;52.018;5.576;2023-01-08T07:06:39;1.02;;;0.50;;
67819;SDS011;54618;52.018;5.576;2023-01-08T07:09:04;1.10;;;0.50;;
67819;SDS011;54618;52.018;5.576;2023-01-08T07:11:30;1.02;;;0.50;;
67819;SDS011;54618;52.018;5.576;2023-01-08T07:13:55;1.40;;;0.50;;
67819;SDS011;54618;52.018;5.576;2023-01-08T07:16:21;0.90;;;0.55;;
67819;SDS011;54618;52.018;5.576;2023-01-08T07:18:46;1.15;;;0.50;;
67819;SDS011;54618;52.018;5.576;2023-01-08T07:21:12;1.70;;;0.57;;
67819;SDS011;54618;52.018;5.576;2023-01-08T07:23:37;1.15;;;0.50;;
67819;SDS011;54618;52.018;5.576;2023-01-08T07:26:04;1.30;;;0.50;;
67819;SDS011;54618;52.018;5.576;2023-01-08T07:28:31;0.93;;;0.60;;
67819;SDS011;54618;52.018;5.576;2023-01-08T07:30:56;1.10;;;0.40;;
67819;SDS011;54618;52.018;5.576;2023-01-08T07:33:22;1.20;;;0.45;;
67819;SDS011;54618;52.018;5.576;2023-01-08T07:35:54;1.15;;;0.57;;
67819;SDS011;54618;52.018;5.576;2023-01-08T07:38:20;1.00;;;0.50;;
67819;SDS011;54618;52.018;5.576;2023-01-08T07:40:46;1.10;;;0.50;;
67819;SDS011;54618;52.018;5.576;2023-01-08T07:43:12;1.13;;;0.50;;
67819;SDS011;54618;52.018;5.576;2023-01-08T07:45:38;1.20;;;0.50;;
67819;SDS011;54618;52.018;5.576;2023-01-08T07:48:04;0.60;;;0.50;;
67819;SDS011;54618;52.018;5.576;2023-01-08T07:50:30;1.35;;;0.52;;
67819;SDS011;54618;52.018;5.576;2023-01-08T07:52:57;1.02;;;0.47;;
67819;SDS011;54618;52.018;5.576;2023-01-08T07:55:23;1.15;;;0.50;;
67819;SDS011;54618;52.018;5.576;2023-01-08T07:57:49;0.98;;;0.45;;
67819;SDS011;54618;52.018;5.576;2023-01-08T08:00:14;0.88;;;0.47;;
67819;SDS011;54618;52.018;5.576;2023-01-08T08:02:40;0.55;;;0.50;;
67819;SDS011;54618;52.018;5.576;2023-01-08T08:05:06;1.27;;;0.40;;
67819;SDS011;54618;52.018;5.576;2023-01-08T08:07:32;0.50;;;0.40;;
67819;SDS011;54618;52.018;5.576;2023-01-08T08:09:57;1.00;;;0.50;;
67819;SDS011;54618;52.018;5.576;2023-01-08T08:12:23;1.20;;;0.50;;
67819;SDS011;54618;52.018;5.576;2023-01-08T08:14:49;1.80;;;0.60;;
67819;SDS011;54618;52.018;5.576;2023-01-08T08:17:14;0.52;;;0.40;;
67819;SDS011;54618;52.018;5.576;2023-01-08T08:19:40;0.98;;;0.30;;
67819;SDS011;54618;52.018;5.576;2023-01-08T08:22:08;1.00;;;0.45;;
67819;SDS011;54618;52.018;5.576;2023-01-08T08:24:34;0.95;;;0.50;;
67819;SDS011;54618;52.018;5.576;2023-01-08T08:26:59;0.88;;;0.40;;
67819;SDS011;54618;52.018;5.576;2023-01-08T08:29:25;1.15;;;0.52;;
67819;SDS011;54618;52.018;5.576;2023-01-08T08:31:50;0.57;;;0.40;;
67819;SDS011;54618;52.018;5.576;2023-01-08T08:34:16;1.60;;;0.50;;
67819;SDS011;54618;52.018;5.576;2023-01-08T08:36:41;0.68;;;0.40;;
67819;SDS011;54618;52.018;5.576;2023-01-08T08:39:07;1.63;;;0.50;;
67819;SDS011;54618;52.018;5.576;2023-01-08T08:41:32;1.05;;;0.40;;
67819;SDS011;54618;52.018;5.576;2023-01-08T08:43:57;1.42;;;0.55;;
67819;SDS011;54618;52.018;5.576;2023-01-08T08:46:23;0.63;;;0.40;;
67819;SDS011;54618;52.018;5.576;2023-01-08T08:48:49;0.98;;;0.50;;
67819;SDS011;54618;52.018;5.576;2023-01-08T08:51:15;1.23;;;0.50;;
67819;SDS011;54618;52.018;5.576;2023-01-08T08:53:40;1.88;;;0.60;;
67819;SDS011;54618;52.018;5.576;2023-01-08T08:56:06;1.00;;;0.40;;
67819;SDS011;54618;52.018;5.576;2023-01-08T08:58:32;1.17;;;0.60;;
67819;SDS011;54618;52.018;5.576;2023-01-08T09:01:01;0.80;;;0.40;;
67819;SDS011;54618;52.018;5.576;2023-01-08T09:03:27;1.17;;;0.40;;
67819;SDS011;54618;52.018;5.576;2023-01-08T09:05:54;2.97;;;0.50;;
67819;SDS011;54618;52.018;5.576;2023-01-08T09:08:20;0.47;;;0.30;;
67819;SDS011;54618;52.018;5.576;2023-01-08T09:10:45;0.75;;;0.40;;
67819;SDS011;54618;52.018;5.576;2023-01-08T09:13:11;1.48;;;0.60;;
67819;SDS011;54618;52.018;5.576;2023-01-08T09:15:36;0.85;;;0.40;;
67819;SDS011;54618;52.018;5.576;2023-01-08T09:18:02;1.60;;;0.63;;
67819;SDS011;54618;52.018;5.576;2023-01-08T09:20:28;1.92;;;0.50;;
67819;SDS011;54618;52.018;5.576;2023-01-08T09:22:56;1.30;;;0.50;;
67819;SDS011;54618;52.018;5.576;2023-01-08T09:25:22;2.17;;;0.60;;
67819;SDS011;54618;52.018;5.576;2023-01-08T09:27:48;0.95;;;0.50;;
67819;SDS011;54618;52.018;5.576;2023-01-08T09:30:14;1.80;;;0.52;;
67819;SDS011;54618;52.018;5.576;2023-01-08T09:32:39;1.77;;;0.43;;
67819;SDS011;54618;52.018;5.576;2023-01-08T09:35:05;2.30;;;0.40;;
67819;SDS011;54618;52.018;5.576;2023-01-08T09:37:31;2.90;;;0.70;;
67819;SDS011;54618;52.018;5.576;2023-01-08T09:39:56;0.73;;;0.40;;
67819;SDS011;54618;52.018;5.576;2023-01-08T09:42:22;1.88;;;0.50;;
67819;SDS011;54618;52.018;5.576;2023-01-08T09:44:52;1.55;;;0.50;;
67819;SDS011;54618;52.018;5.576;2023-01-08T09:47:39;1.20;;;0.40;;
67819;SDS011;54618;52.018;5.576;2023-01-08T09:50:10;1.10;;;0.47;;
67819;SDS011;54618;52.018;5.576;2023-01-08T09:52:37;2.72;;;0.50;;
67819;SDS011;54618;52.018;5.576;2023-01-08T09:55:05;0.80;;;0.60;;
67819;SDS011;54618;52.018;5.576;2023-01-08T09:57:37;1.35;;;0.40;;
67819;SDS011;54618;52.018;5.576;2023-01-08T10:00:02;1.33;;;0.45;;
67819;SDS011;54618;52.018;5.576;2023-01-08T10:02:28;1.42;;;0.60;;
67819;SDS011;54618;52.018;5.576;2023-01-08T10:04:58;1.20;;;0.52;;
67819;SDS011;54618;52.018;5.576;2023-01-08T10:07:25;1.60;;;0.60;;
67819;SDS011;54618;52.018;5.576;2023-01-08T10:09:52;1.98;;;0.50;;
67819;SDS011;54618;52.018;5.576;2023-01-08T10:12:29;2.50;;;0.70;;
67819;SDS011;54618;52.018;5.576;2023-01-08T10:15:00;1.92;;;0.60;;
67819;SDS011;54618;52.018;5.576;2023-01-08T10:20:13;1.25;;;0.55;;
67819;SDS011;54618;52.018;5.576;2023-01-08T10:22:48;1.67;;;0.50;;
67819;SDS011;54618;52.018;5.576;2023-01-08T10:25:15;1.33;;;0.50;;
67819;SDS011;54618;52.018;5.576;2023-01-08T10:27:47;1.65;;;0.60;;
67819;SDS011;54618;52.018;5.576;2023-01-08T10:30:15;1.30;;;0.60;;
67819;SDS011;54618;52.018;5.576;2023-01-08T10:32:50;2.08;;;0.60;;
67819;SDS011;54618;52.018;5.576;2023-01-08T10:35:23;1.77;;;0.60;;
67819;SDS011;54618;52.018;5.576;2023-01-08T10:37:57;2.53;;;0.90;;
67819;SDS011;54618;52.018;5.576;2023-01-08T10:40:31;1.35;;;0.52;;
67819;SDS011;54618;52.018;5.576;2023-01-08T10:43:20;1.45;;;0.50;;
67819;SDS011;54618;52.018;5.576;2023-01-08T10:48:24;1.52;;;0.50;;
67819;SDS011;54618;52.018;5.576;2023-01-08T10:51:29;1.52;;;0.52;;
67819;SDS011;54618;52.018;5.576;2023-01-08T10:54:00;2.00;;;0.63;;
67819;SDS011;54618;52.018;5.576;2023-01-08T10:56:41;2.25;;;0.70;;
67819;SDS011;54618;52.018;5.576;2023-01-08T10:59:20;2.05;;;0.60;;
67819;SDS011;54618;52.018;5.576;2023-01-08T11:01:51;1.45;;;0.60;;
67819;SDS011;54618;52.018;5.576;2023-01-08T11:04:27;3.25;;;0.65;;
67819;SDS011;54618;52.018;5.576;2023-01-08T11:06:56;4.80;;;0.60;;
67819;SDS011;54618;52.018;5.576;2023-01-08T11:09:27;4.75;;;0.70;;
67819;SDS011;54618;52.018;5.576;2023-01-08T11:11:56;2.20;;;0.65;;
67819;SDS011;54618;52.018;5.576;2023-01-08T11:14:27;2.55;;;0.70;;
67819;SDS011;54618;52.018;5.576;2023-01-08T11:17:09;3.97;;;0.90;;
67819;SDS011;54618;52.018;5.576;2023-01-08T11:19:36;2.50;;;0.70;;
67819;SDS011;54618;52.018;5.576;2023-01-08T11:22:22;1.85;;;0.68;;
67819;SDS011;54618;52.018;5.576;2023-01-08T11:24:50;2.20;;;0.63;;
67819;SDS011;54618;52.018;5.576;2023-01-08T11:30:04;1.17;;;0.63;;
67819;SDS011;54618;52.018;5.576;2023-01-08T11:35:19;4.47;;;0.70;;
67819;SDS011;54618;52.018;5.576;2023-01-08T11:37:57;2.47;;;0.70;;
67819;SDS011;54618;52.018;5.576;2023-01-08T11:43:06;3.10;;;0.60;;
67819;SDS011;54618;52.018;5.576;2023-01-08T11:51:49;2.05;;;0.70;;
67819;SDS011;54618;52.018;5.576;2023-01-08T11:54:31;3.40;;;0.73;;
67819;SDS011;54618;52.018;5.576;2023-01-08T11:57:12;3.30;;;0.70;;
67819;SDS011;54618;52.018;5.576;2023-01-08T12:02:47;3.55;;;0.80;;
67819;SDS011;54618;52.018;5.576;2023-01-08T12:10:44;4.47;;;0.70;;
67819;SDS011;54618;52.018;5.576;2023-01-08T12:19:00;2.38;;;0.70;;
67819;SDS011;54618;52.018;5.576;2023-01-08T12:21:54;3.85;;;0.90;;
67819;SDS011;54618;52.018;5.576;2023-01-08T12:24:48;1.85;;;0.60;;
67819;SDS011;54618;52.018;5.576;2023-01-08T12:30:21;2.92;;;0.70;;
67819;SDS011;54618;52.018;5.576;2023-01-08T12:32:55;2.47;;;0.70;;
67819;SDS011;54618;52.018;5.576;2023-01-08T12:35:37;3.17;;;0.50;;
67819;SDS011;54618;52.018;5.576;2023-01-08T12:38:16;4.68;;;0.65;;
67819;SDS011;54618;52.018;5.576;2023-01-08T12:40:54;3.50;;;1.05;;
67819;SDS011;54618;52.018;5.576;2023-01-08T12:43:27;2.35;;;0.50;;
67819;SDS011;54618;52.018;5.576;2023-01-08T12:46:01;3.85;;;0.65;;
67819;SDS011;54618;52.018;5.576;2023-01-08T12:48:30;2.70;;;0.60;;
67819;SDS011;54618;52.018;5.576;2023-01-08T12:53:55;3.15;;;0.80;;
67819;SDS011;54618;52.018;5.576;2023-01-08T12:56:52;2.00;;;0.60;;
67819;SDS011;54618;52.018;5.576;2023-01-08T12:59:53;4.53;;;0.77;;
67819;SDS011;54618;52.018;5.576;2023-01-08T13:02:35;3.00;;;0.50;;
67819;SDS011;54618;52.018;5.576;2023-01-08T13:07:43;2.00;;;0.50;;
67819;SDS011;54618;52.018;5.576;2023-01-08T13:12:55;3.08;;;0.68;;
67819;SDS011;54618;52.018;5.576;2023-01-08T13:15:23;1.63;;;0.60;;
67819;SDS011;54618;52.018;5.576;2023-01-08T13:17:51;2.85;;;0.45;;
67819;SDS011;54618;52.018;5.576;2023-01-08T13:20:20;2.47;;;0.50;;
67819;SDS011;54618;52.018;5.576;2023-01-08T13:22:51;3.38;;;0.70;;
67819;SDS011;54618;52.018;5.576;2023-01-08T13:27:45;1.15;;;0.50;;
67819;SDS011;54618;52.018;5.576;2023-01-08T13:32:57;2.00;;;0.68;;
67819;SDS011;54618;52.018;5.576;2023-01-08T13:35:24;0.93;;;0.50;;
67819;SDS011;54618;52.018;5.576;2023-01-08T13:46:03;1.85;;;0.50;;
67819;SDS011;54618;52.018;5.576;2023-01-08T13:48:32;1.10;;;0.55;;
67819;SDS011;54618;52.018;5.576;2023-01-08T13:51:03;2.97;;;0.60;;
67819;SDS011;54618;52.018;5.576;2023-01-08T13:53:28;1.48;;;0.55;;
67819;SDS011;54618;52.018;5.576;2023-01-08T13:55:58;1.50;;;0.60;;
67819;SDS011;54618;52.018;5.576;2023-01-08T13:58:27;2.13;;;0.60;;
67819;SDS011;54618;52.018;5.576;2023-01-08T14:00:57;3.40;;;0.50;;
67819;SDS011;54618;52.018;5.576;2023-01-08T14:03:25;2.22;;;0.50;;
67819;SDS011;54618;52.018;5.576;2023-01-08T14:08:59;1.05;;;0.50;;
67819;SDS011;54618;52.018;5.576;2023-01-08T14:14:18;2.55;;;0.88;;
67819;SDS011;54618;52.018;5.576;2023-01-08T14:16:49;2.00;;;0.60;;
67819;SDS011;54618;52.018;5.576;2023-01-08T14:19:17;2.22;;;1.00;;
67819;SDS011;54618;52.018;5.576;2023-01-08T14:21:49;4.75;;;0.90;;
67819;SDS011;54618;52.018;5.576;2023-01-08T14:24:16;2.22;;;0.73;;
67819;SDS011;54618;52.018;5.576;2023-01-08T14:26:49;2.00;;;0.60;;
67819;SDS011;54618;52.018;5.576;2023-01-08T14:29:19;1.95;;;0.75;;
67819;SDS011;54618;52.018;5.576;2023-01-08T14:31:47;1.77;;;0.60;;
67819;SDS011;54618;52.018;5.576;2023-01-08T14:34:15;3.40;;;0.80;;
67819;SDS011;54618;52.018;5.576;2023-01-08T14:36:42;3.17;;;0.80;;
67819;SDS011;54618;52.018;5.576;2023-01-08T14:39:11;2.63;;;1.13;;
67819;SDS011;54618;52.018;5.576;2023-01-08T14:41:45;2.70;;;1.13;;
67819;SDS011;54618;52.018;5.576;2023-01-08T14:44:30;4.00;;;0.90;;
67819;SDS011;54618;52.018;5.576;2023-01-08T14:46:56;2.78;;;0.98;;
67819;SDS011;54618;52.018;5.576;2023-01-08T14:49:23;3.83;;;1.30;;
67819;SDS011;54618;52.018;5.576;2023-01-08T14:51:51;3.22;;;1.00;;
67819;SDS011;54618;52.018;5.576;2023-01-08T14:54:18;3.30;;;0.90;;
67819;SDS011;54618;52.018;5.576;2023-01-08T14:56:48;4.05;;;1.10;;
67819;SDS011;54618;52.018;5.576;2023-01-08T14:59:18;2.83;;;1.20;;
67819;SDS011;54618;52.018;5.576;2023-01-08T15:01:50;2.65;;;0.90;;
67819;SDS011;54618;52.018;5.576;2023-01-08T15:04:19;3.13;;;0.90;;
67819;SDS011;54618;52.018;5.576;2023-01-08T15:06:45;4.72;;;1.10;;
67819;SDS011;54618;52.018;5.576;2023-01-08T15:09:22;2.25;;;0.80;;
67819;SDS011;54618;52.018;5.576;2023-01-08T15:11:55;4.82;;;1.08;;
67819;SDS011;54618;52.018;5.576;2023-01-08T15:14:26;3.63;;;1.08;;
67819;SDS011;54618;52.018;5.576;2023-01-08T15:16:53;2.72;;;0.80;;
67819;SDS011;54618;52.018;5.576;2023-01-08T15:21:54;2.85;;;0.80;;
67819;SDS011;54618;52.018;5.576;2023-01-08T15:26:54;3.80;;;1.00;;
67819;SDS011;54618;52.018;5.576;2023-01-08T15:29:28;2.75;;;0.90;;
67819;SDS011;54618;52.018;5.576;2023-01-08T15:32:06;3.95;;;0.80;;
67819;SDS011;54618;52.018;5.576;2023-01-08T15:34:39;3.28;;;1.00;;
67819;SDS011;54618;52.018;5.576;2023-01-08T15:37:08;2.08;;;0.85;;
67819;SDS011;54618;52.018;5.576;2023-01-08T15:39:34;2.90;;;0.95;;
67819;SDS011;54618;52.018;5.576;2023-01-08T15:42:00;3.03;;;0.95;;
67819;SDS011;54618;52.018;5.576;2023-01-08T15:44:59;3.13;;;1.00;;
67819;SDS011;54618;52.018;5.576;2023-01-08T15:47:24;1.98;;;0.80;;
67819;SDS011;54618;52.018;5.576;2023-01-08T15:49:50;2.33;;;0.70;;
67819;SDS011;54618;52.018;5.576;2023-01-08T15:52:19;2.80;;;0.70;;
67819;SDS011;54618;52.018;5.576;2023-01-08T15:54:48;3.85;;;1.02;;
67819;SDS011;54618;52.018;5.576;2023-01-08T15:57:14;3.70;;;1.10;;
67819;SDS011;54618;52.018;5.576;2023-01-08T15:59:39;5.07;;;1.30;;
67819;SDS011;54618;52.018;5.576;2023-01-08T16:02:05;3.97;;;1.15;;
67819;SDS011;54618;52.018;5.576;2023-01-08T16:04:30;3.75;;;1.30;;
67819;SDS011;54618;52.018;5.576;2023-01-08T16:06:56;5.10;;;1.10;;
67819;SDS011;54618;52.018;5.576;2023-01-08T16:09:21;4.38;;;1.10;;
67819;SDS011;54618;52.018;5.576;2023-01-08T16:11:47;3.47;;;1.00;;
67819;SDS011;54618;52.018;5.576;2023-01-08T16:14:13;4.32;;;1.13;;
67819;SDS011;54618;52.018;5.576;2023-01-08T16:16:39;3.50;;;1.02;;
67819;SDS011;54618;52.018;5.576;2023-01-08T16:19:04;3.53;;;1.00;;
67819;SDS011;54618;52.018;5.576;2023-01-08T16:21:30;3.42;;;1.20;;
67819;SDS011;54618;52.018;5.576;2023-01-08T16:23:56;4.25;;;1.08;;